Terminal Aerodrome Forecast
Issued by NWS

Home | Current Version | Previous Version | Text Only | Print | Product List | Glossary On
Versions: 1 2 3 4 5 6 7 8 9 10 11 12 13 14 15 16 17 18 19 20 21 22 23 24 25 26
000
FTUS41 KRNK 191130
TAFBCB
TAF
KBCB 191130Z 1912/2012 19012G22KT P6SM SCT060 BKN250
      TEMPO 1912/1914 2SM SHRA BR OVC008
     FM191500 17010G20KT P6SM VCSH OVC040
     FM191700 16013G23KT 4SM -SHRA BR VCTS SCT015 OVC045CB
     FM192000 16010G20KT 2SM TSRA BR BKN015 OVC035CB WS020/24035KT
     FM200100 18006KT 3SM BR OVC012=

USA.gov is the U.S. government's official web portal to all federal, state and local government web resources and services.